sensor_id;sensor_type;location;lat;lon;timestamp;pressure;altitude;pressure_sealevel;temperature;humidity
64551;BME280;50945;44.472;-123.352;2023-02-24T00:01:50;99064.63;;;0.69;87.06
64551;BME280;50945;44.472;-123.352;2023-02-24T00:04:19;99082.00;;;0.57;87.30
64551;BME280;50945;44.472;-123.352;2023-02-24T00:06:46;99103.09;;;0.52;86.99
64551;BME280;50945;44.472;-123.352;2023-02-24T00:09:16;99115.63;;;0.43;87.05
64551;BME280;50945;44.472;-123.352;2023-02-24T00:11:52;99119.91;;;0.36;87.19
64551;BME280;50945;44.472;-123.352;2023-02-24T00:14:19;99131.38;;;0.28;86.58
64551;BME280;50945;44.472;-123.352;2023-02-24T00:16:46;99136.38;;;0.23;86.74
64551;BME280;50945;44.472;-123.352;2023-02-24T00:19:15;99150.25;;;0.18;86.15
64551;BME280;50945;44.472;-123.352;2023-02-24T00:21:42;99160.59;;;0.13;86.68
64551;BME280;50945;44.472;-123.352;2023-02-24T00:24:09;99165.13;;;0.13;85.87
64551;BME280;50945;44.472;-123.352;2023-02-24T00:26:39;99171.06;;;0.07;85.58
64551;BME280;50945;44.472;-123.352;2023-02-24T00:29:11;99166.03;;;-0.06;86.63
64551;BME280;50945;44.472;-123.352;2023-02-24T00:31:41;99162.09;;;-0.22;86.58
64551;BME280;50945;44.472;-123.352;2023-02-24T00:34:08;99162.56;;;-0.36;88.32
64551;BME280;50945;44.472;-123.352;2023-02-24T00:36:38;99158.47;;;-0.50;89.51
64551;BME280;50945;44.472;-123.352;2023-02-24T00:39:05;99173.63;;;-0.59;90.86
64551;BME280;50945;44.472;-123.352;2023-02-24T00:41:40;99168.25;;;-0.78;93.06
64551;BME280;50945;44.472;-123.352;2023-02-24T00:44:08;99172.06;;;-0.90;92.44
64551;BME280;50945;44.472;-123.352;2023-02-24T00:46:38;99175.44;;;-0.98;93.93
64551;BME280;50945;44.472;-123.352;2023-02-24T00:49:08;99176.97;;;-1.05;92.91
64551;BME280;50945;44.472;-123.352;2023-02-24T00:51:40;99184.72;;;-1.12;93.54
64551;BME280;50945;44.472;-123.352;2023-02-24T00:54:07;99187.13;;;-1.19;91.97
64551;BME280;50945;44.472;-123.352;2023-02-24T00:56:34;99193.47;;;-1.20;91.53
64551;BME280;50945;44.472;-123.352;2023-02-24T00:59:01;99184.97;;;-1.25;91.74
64551;BME280;50945;44.472;-123.352;2023-02-24T01:01:32;99191.63;;;-1.29;92.48
64551;BME280;50945;44.472;-123.352;2023-02-24T01:04:01;99196.69;;;-1.36;92.39
64551;BME280;50945;44.472;-123.352;2023-02-24T01:06:38;99201.06;;;-1.35;91.88
64551;BME280;50945;44.472;-123.352;2023-02-24T01:09:06;99195.56;;;-1.33;91.58
64551;BME280;50945;44.472;-123.352;2023-02-24T01:11:43;99202.75;;;-1.34;91.22
64551;BME280;50945;44.472;-123.352;2023-02-24T01:14:34;99207.53;;;-1.37;90.72
64551;BME280;50945;44.472;-123.352;2023-02-24T01:17:02;99203.69;;;-1.44;91.00
64551;BME280;50945;44.472;-123.352;2023-02-24T01:19:30;99220.22;;;-1.49;90.87
64551;BME280;50945;44.472;-123.352;2023-02-24T01:22:02;99225.28;;;-1.46;90.48
64551;BME280;50945;44.472;-123.352;2023-02-24T01:24:34;99234.19;;;-1.45;91.24
64551;BME280;50945;44.472;-123.352;2023-02-24T01:27:01;99224.31;;;-1.45;90.66
64551;BME280;50945;44.472;-123.352;2023-02-24T01:29:33;99237.41;;;-1.51;90.28
64551;BME280;50945;44.472;-123.352;2023-02-24T01:32:05;99245.56;;;-1.53;91.22
64551;BME280;50945;44.472;-123.352;2023-02-24T01:34:32;99242.88;;;-1.53;91.06
64551;BME280;50945;44.472;-123.352;2023-02-24T01:36:59;99244.84;;;-1.55;90.66
64551;BME280;50945;44.472;-123.352;2023-02-24T01:39:28;99253.63;;;-1.53;90.97
64551;BME280;50945;44.472;-123.352;2023-02-24T01:41:55;99260.81;;;-1.54;91.08
64551;BME280;50945;44.472;-123.352;2023-02-24T01:46:58;99273.81;;;-1.49;90.77
64551;BME280;50945;44.472;-123.352;2023-02-24T01:49:40;99265.06;;;-1.51;90.54
64551;BME280;50945;44.472;-123.352;2023-02-24T01:52:16;99276.06;;;-1.54;90.60
64551;BME280;50945;44.472;-123.352;2023-02-24T01:57:32;99279.97;;;-1.58;90.11
64551;BME280;50945;44.472;-123.352;2023-02-24T02:00:01;99285.47;;;-1.60;89.30
64551;BME280;50945;44.472;-123.352;2023-02-24T02:02:50;99293.38;;;-1.58;89.50
64551;BME280;50945;44.472;-123.352;2023-02-24T02:05:17;99297.03;;;-1.59;89.38
64551;BME280;50945;44.472;-123.352;2023-02-24T02:07:44;99292.66;;;-1.60;89.04
64551;BME280;50945;44.472;-123.352;2023-02-24T02:10:11;99296.34;;;-1.61;88.69
64551;BME280;50945;44.472;-123.352;2023-02-24T02:12:39;99299.16;;;-1.63;88.78
64551;BME280;50945;44.472;-123.352;2023-02-24T02:15:11;99298.31;;;-1.63;88.81
64551;BME280;50945;44.472;-123.352;2023-02-24T02:17:59;99303.66;;;-1.63;87.36
64551;BME280;50945;44.472;-123.352;2023-02-24T02:28:49;99319.66;;;-1.73;86.81
64551;BME280;50945;44.472;-123.352;2023-02-24T02:36:53;99345.25;;;-1.90;85.27
64551;BME280;50945;44.472;-123.352;2023-02-24T02:42:02;99358.75;;;-1.92;85.84
64551;BME280;50945;44.472;-123.352;2023-02-24T02:44:46;99371.44;;;-1.94;86.13
64551;BME280;50945;44.472;-123.352;2023-02-24T02:47:57;99371.69;;;-1.97;85.49
64551;BME280;50945;44.472;-123.352;2023-02-24T02:52:54;99376.69;;;-2.03;84.79
64551;BME280;50945;44.472;-123.352;2023-02-24T02:55:49;99386.81;;;-2.07;84.50
64551;BME280;50945;44.472;-123.352;2023-02-24T02:58:25;99383.06;;;-2.16;82.34
64551;BME280;50945;44.472;-123.352;2023-02-24T03:00:55;99384.91;;;-2.16;82.35
64551;BME280;50945;44.472;-123.352;2023-02-24T03:03:28;99383.44;;;-2.20;80.94
64551;BME280;50945;44.472;-123.352;2023-02-24T03:06:01;99385.53;;;-2.24;81.33
64551;BME280;50945;44.472;-123.352;2023-02-24T03:08:30;99389.44;;;-2.28;80.69
64551;BME280;50945;44.472;-123.352;2023-02-24T03:11:00;99398.84;;;-2.34;79.22
64551;BME280;50945;44.472;-123.352;2023-02-24T03:13:34;99401.63;;;-2.35;80.56
64551;BME280;50945;44.472;-123.352;2023-02-24T03:16:03;99417.22;;;-2.40;80.94
64551;BME280;50945;44.472;-123.352;2023-02-24T03:18:45;99418.69;;;-2.47;80.01
64551;BME280;50945;44.472;-123.352;2023-02-24T03:21:36;99422.97;;;-2.56;78.11
64551;BME280;50945;44.472;-123.352;2023-02-24T03:24:05;99428.44;;;-2.58;77.25
64551;BME280;50945;44.472;-123.352;2023-02-24T03:31:40;99453.63;;;-2.72;79.02
64551;BME280;50945;44.472;-123.352;2023-02-24T03:34:12;99453.88;;;-2.75;78.58
64551;BME280;50945;44.472;-123.352;2023-02-24T03:36:40;99461.66;;;-2.83;79.15
64551;BME280;50945;44.472;-123.352;2023-02-24T03:39:09;99462.25;;;-2.91;77.57
64551;BME280;50945;44.472;-123.352;2023-02-24T03:41:48;99468.56;;;-2.92;80.13
64551;BME280;50945;44.472;-123.352;2023-02-24T03:44:19;99474.91;;;-2.93;80.59
64551;BME280;50945;44.472;-123.352;2023-02-24T03:46:45;99474.41;;;-2.98;78.08
64551;BME280;50945;44.472;-123.352;2023-02-24T03:49:14;99487.06;;;-3.00;78.19
64551;BME280;50945;44.472;-123.352;2023-02-24T03:52:06;99481.09;;;-3.03;78.16
64551;BME280;50945;44.472;-123.352;2023-02-24T04:00:30;99499.28;;;-3.20;80.04
64551;BME280;50945;44.472;-123.352;2023-02-24T04:03:24;99505.00;;;-3.25;77.24
64551;BME280;50945;44.472;-123.352;2023-02-24T04:06:19;99501.81;;;-3.30;78.55
64551;BME280;50945;44.472;-123.352;2023-02-24T04:11:56;99509.66;;;-3.39;78.43
64551;BME280;50945;44.472;-123.352;2023-02-24T04:14:50;99515.16;;;-3.41;79.19
64551;BME280;50945;44.472;-123.352;2023-02-24T04:17:54;99514.66;;;-3.46;79.15
64551;BME280;50945;44.472;-123.352;2023-02-24T04:20:25;99522.88;;;-3.49;77.27
64551;BME280;50945;44.472;-123.352;2023-02-24T04:23:05;99533.69;;;-3.51;78.49
64551;BME280;50945;44.472;-123.352;2023-02-24T04:25:34;99526.75;;;-3.53;79.85
64551;BME280;50945;44.472;-123.352;2023-02-24T04:28:04;99528.56;;;-3.54;78.87
64551;BME280;50945;44.472;-123.352;2023-02-24T04:30:39;99542.91;;;-3.55;78.31
64551;BME280;50945;44.472;-123.352;2023-02-24T04:33:08;99539.50;;;-3.57;80.15
64551;BME280;50945;44.472;-123.352;2023-02-24T04:35:35;99543.34;;;-3.61;78.41
64551;BME280;50945;44.472;-123.352;2023-02-24T04:38:03;99543.94;;;-3.69;78.19
64551;BME280;50945;44.472;-123.352;2023-02-24T04:40:30;99547.44;;;-3.68;78.64
64551;BME280;50945;44.472;-123.352;2023-02-24T04:42:56;99562.84;;;-3.72;76.17
64551;BME280;50945;44.472;-123.352;2023-02-24T04:45:28;99555.19;;;-3.76;79.17
64551;BME280;50945;44.472;-123.352;2023-02-24T04:47:59;99557.34;;;-3.82;76.78
64551;BME280;50945;44.472;-123.352;2023-02-24T04:50:32;99565.56;;;-3.85;77.95
64551;BME280;50945;44.472;-123.352;2023-02-24T04:53:05;99569.56;;;-3.90;78.48
64551;BME280;50945;44.472;-123.352;2023-02-24T04:55:35;99565.28;;;-3.93;77.80
64551;BME280;50945;44.472;-123.352;2023-02-24T04:58:12;99574.59;;;-3.98;78.33
64551;BME280;50945;44.472;-123.352;2023-02-24T05:00:44;99582.06;;;-4.04;76.73
64551;BME280;50945;44.472;-123.352;2023-02-24T05:03:13;99577.09;;;-4.08;77.18
64551;BME280;50945;44.472;-123.352;2023-02-24T05:05:47;99595.25;;;-4.13;73.87
64551;BME280;50945;44.472;-123.352;2023-02-24T05:08:17;99597.06;;;-4.14;76.89
64551;BME280;50945;44.472;-123.352;2023-02-24T05:10:45;99594.50;;;-4.15;77.34
64551;BME280;50945;44.472;-123.352;2023-02-24T05:13:17;99609.00;;;-4.20;75.26
64551;BME280;50945;44.472;-123.352;2023-02-24T05:15:45;99610.09;;;-4.22;76.11
64551;BME280;50945;44.472;-123.352;2023-02-24T05:18:16;99613.31;;;-4.30;75.02
64551;BME280;50945;44.472;-123.352;2023-02-24T05:20:47;99613.63;;;-4.34;72.94
64551;BME280;50945;44.472;-123.352;2023-02-24T05:23:38;99619.16;;;-4.37;75.00
64551;BME280;50945;44.472;-123.352;2023-02-24T05:26:07;99621.19;;;-4.41;77.24
64551;BME280;50945;44.472;-123.352;2023-02-24T05:28:38;99628.78;;;-4.48;74.96
64551;BME280;50945;44.472;-123.352;2023-02-24T05:31:09;99629.75;;;-4.49;77.41
64551;BME280;50945;44.472;-123.352;2023-02-24T05:33:37;99631.69;;;-4.51;77.28
64551;BME280;50945;44.472;-123.352;2023-02-24T05:36:04;99635.63;;;-4.56;74.27
64551;BME280;50945;44.472;-123.352;2023-02-24T05:38:32;99634.00;;;-4.59;76.81
64551;BME280;50945;44.472;-123.352;2023-02-24T05:41:11;99644.25;;;-4.66;74.36
64551;BME280;50945;44.472;-123.352;2023-02-24T05:43:51;99639.13;;;-4.69;75.87
64551;BME280;50945;44.472;-123.352;2023-02-24T05:46:24;99643.84;;;-4.72;75.68
64551;BME280;50945;44.472;-123.352;2023-02-24T05:48:56;99645.63;;;-4.73;76.90
64551;BME280;50945;44.472;-123.352;2023-02-24T05:51:32;99644.13;;;-4.77;75.82
64551;BME280;50945;44.472;-123.352;2023-02-24T05:54:07;99655.00;;;-4.80;75.45
64551;BME280;50945;44.472;-123.352;2023-02-24T05:56:35;99659.78;;;-4.85;76.36
64551;BME280;50945;44.472;-123.352;2023-02-24T05:59:05;99660.00;;;-4.88;78.31
64551;BME280;50945;44.472;-123.352;2023-02-24T06:01:36;99661.06;;;-4.91;77.93
64551;BME280;50945;44.472;-123.352;2023-02-24T06:04:04;99670.22;;;-4.95;76.99
64551;BME280;50945;44.472;-123.352;2023-02-24T06:06:39;99669.38;;;-4.95;76.38
64551;BME280;50945;44.472;-123.352;2023-02-24T06:09:12;99683.84;;;-5.00;75.96
64551;BME280;50945;44.472;-123.352;2023-02-24T06:11:42;99695.59;;;-5.02;75.19
64551;BME280;50945;44.472;-123.352;2023-02-24T06:14:11;99701.88;;;-5.03;76.70
64551;BME280;50945;44.472;-123.352;2023-02-24T06:16:39;99695.03;;;-5.07;73.81
64551;BME280;50945;44.472;-123.352;2023-02-24T06:19:10;99712.84;;;-5.08;75.61
64551;BME280;50945;44.472;-123.352;2023-02-24T06:21:39;99704.84;;;-5.08;76.98
64551;BME280;50945;44.472;-123.352;2023-02-24T06:24:13;99702.47;;;-5.12;73.96
64551;BME280;50945;44.472;-123.352;2023-02-24T06:26:44;99705.16;;;-5.12;75.80
64551;BME280;50945;44.472;-123.352;2023-02-24T06:29:14;99695.56;;;-5.15;76.09
64551;BME280;50945;44.472;-123.352;2023-02-24T06:31:42;99695.84;;;-5.20;74.59
64551;BME280;50945;44.472;-123.352;2023-02-24T06:34:12;99698.03;;;-5.26;75.35
64551;BME280;50945;44.472;-123.352;2023-02-24T06:36:43;99694.53;;;-5.27;76.39
64551;BME280;50945;44.472;-123.352;2023-02-24T06:39:09;99707.94;;;-5.28;72.86
64551;BME280;50945;44.472;-123.352;2023-02-24T06:41:54;99707.84;;;-5.27;76.40
64551;BME280;50945;44.472;-123.352;2023-02-24T06:44:22;99709.88;;;-5.30;75.54
64551;BME280;50945;44.472;-123.352;2023-02-24T06:46:50;99717.00;;;-5.31;74.95
64551;BME280;50945;44.472;-123.352;2023-02-24T06:49:16;99731.19;;;-5.30;77.10
64551;BME280;50945;44.472;-123.352;2023-02-24T06:51:42;99724.03;;;-5.30;75.78
64551;BME280;50945;44.472;-123.352;2023-02-24T06:54:09;99725.09;;;-5.32;75.69
64551;BME280;50945;44.472;-123.352;2023-02-24T06:56:35;99721.78;;;-5.36;73.53
64551;BME280;50945;44.472;-123.352;2023-02-24T06:59:04;99728.06;;;-5.37;75.07
64551;BME280;50945;44.472;-123.352;2023-02-24T07:01:49;99730.06;;;-5.41;75.99
64551;BME280;50945;44.472;-123.352;2023-02-24T07:04:18;99731.88;;;-5.41;74.81
64551;BME280;50945;44.472;-123.352;2023-02-24T07:06:53;99737.13;;;-5.40;75.03
64551;BME280;50945;44.472;-123.352;2023-02-24T07:09:23;99735.28;;;-5.39;73.69
64551;BME280;50945;44.472;-123.352;2023-02-24T07:11:52;99743.28;;;-5.39;74.53
64551;BME280;50945;44.472;-123.352;2023-02-24T07:14:25;99750.53;;;-5.41;75.08
64551;BME280;50945;44.472;-123.352;2023-02-24T07:16:52;99744.34;;;-5.42;75.53
64551;BME280;50945;44.472;-123.352;2023-02-24T07:19:24;99754.88;;;-5.40;74.61
64551;BME280;50945;44.472;-123.352;2023-02-24T07:21:55;99751.28;;;-5.39;74.55
64551;BME280;50945;44.472;-123.352;2023-02-24T07:24:26;99751.28;;;-5.39;74.38
64551;BME280;50945;44.472;-123.352;2023-02-24T07:27:11;99755.00;;;-5.42;75.14
64551;BME280;50945;44.472;-123.352;2023-02-24T07:29:37;99763.84;;;-5.41;75.82
64551;BME280;50945;44.472;-123.352;2023-02-24T07:32:06;99751.56;;;-5.44;75.37
64551;BME280;50945;44.472;-123.352;2023-02-24T07:34:33;99746.44;;;-5.47;73.88
64551;BME280;50945;44.472;-123.352;2023-02-24T07:37:04;99751.78;;;-5.47;74.46
64551;BME280;50945;44.472;-123.352;2023-02-24T07:39:33;99765.28;;;-5.50;75.17
64551;BME280;50945;44.472;-123.352;2023-02-24T07:41:59;99772.53;;;-5.52;74.89
64551;BME280;50945;44.472;-123.352;2023-02-24T07:44:26;99760.91;;;-5.51;75.12
64551;BME280;50945;44.472;-123.352;2023-02-24T07:46:53;99754.91;;;-5.55;72.71
64551;BME280;50945;44.472;-123.352;2023-02-24T07:49:21;99761.13;;;-5.54;73.97
64551;BME280;50945;44.472;-123.352;2023-02-24T07:51:51;99761.22;;;-5.56;74.58
64551;BME280;50945;44.472;-123.352;2023-02-24T07:54:21;99763.22;;;-5.59;73.45
64551;BME280;50945;44.472;-123.352;2023-02-24T07:56:48;99764.06;;;-5.59;74.56
64551;BME280;50945;44.472;-123.352;2023-02-24T07:59:22;99759.66;;;-5.60;73.48
64551;BME280;50945;44.472;-123.352;2023-02-24T08:01:49;99759.78;;;-5.61;74.06
64551;BME280;50945;44.472;-123.352;2023-02-24T08:04:19;99764.34;;;-5.63;73.35
64551;BME280;50945;44.472;-123.352;2023-02-24T08:06:48;99770.63;;;-5.64;72.93
64551;BME280;50945;44.472;-123.352;2023-02-24T08:09:23;99773.47;;;-5.67;74.07
64551;BME280;50945;44.472;-123.352;2023-02-24T08:14:43;99792.97;;;-5.67;75.11
64551;BME280;50945;44.472;-123.352;2023-02-24T08:17:17;99793.94;;;-5.68;74.81
64551;BME280;50945;44.472;-123.352;2023-02-24T08:19:49;99791.34;;;-5.69;74.06
64551;BME280;50945;44.472;-123.352;2023-02-24T08:22:25;99793.19;;;-5.70;75.58
64551;BME280;50945;44.472;-123.352;2023-02-24T08:24:58;99794.97;;;-5.70;74.82
64551;BME280;50945;44.472;-123.352;2023-02-24T08:27:32;99796.78;;;-5.71;73.77
64551;BME280;50945;44.472;-123.352;2023-02-24T08:30:04;99799.53;;;-5.73;74.86
64551;BME280;50945;44.472;-123.352;2023-02-24T08:32:37;99791.44;;;-5.71;75.08
64551;BME280;50945;44.472;-123.352;2023-02-24T08:35:06;99804.75;;;-5.71;75.47
64551;BME280;50945;44.472;-123.352;2023-02-24T08:37:41;99801.34;;;-5.73;74.18
64551;BME280;50945;44.472;-123.352;2023-02-24T08:40:24;99799.53;;;-5.73;75.18
64551;BME280;50945;44.472;-123.352;2023-02-24T08:48:27;99808.84;;;-5.80;73.61
64551;BME280;50945;44.472;-123.352;2023-02-24T08:53:52;99830.06;;;-5.78;73.79
64551;BME280;50945;44.472;-123.352;2023-02-24T08:56:22;99829.31;;;-5.80;75.28
64551;BME280;50945;44.472;-123.352;2023-02-24T08:58:51;99831.19;;;-5.82;75.05
64551;BME280;50945;44.472;-123.352;2023-02-24T09:01:31;99829.38;;;-5.82;74.57
64551;BME280;50945;44.472;-123.352;2023-02-24T09:04:12;99828.53;;;-5.82;72.12
64551;BME280;50945;44.472;-123.352;2023-02-24T09:06:49;99833.88;;;-5.82;74.42
64551;BME280;50945;44.472;-123.352;2023-02-24T09:09:20;99834.72;;;-5.82;75.16
64551;BME280;50945;44.472;-123.352;2023-02-24T09:14:17;99850.03;;;-5.85;74.33
64551;BME280;50945;44.472;-123.352;2023-02-24T09:16:47;99845.75;;;-5.88;74.03
64551;BME280;50945;44.472;-123.352;2023-02-24T09:22:24;99857.34;;;-5.89;72.63
64551;BME280;50945;44.472;-123.352;2023-02-24T09:25:02;99873.41;;;-5.90;73.52
64551;BME280;50945;44.472;-123.352;2023-02-24T09:27:54;99869.97;;;-5.93;74.27
64551;BME280;50945;44.472;-123.352;2023-02-24T09:30:34;99868.25;;;-5.94;74.33
64551;BME280;50945;44.472;-123.352;2023-02-24T09:33:14;99869.13;;;-5.93;74.07
64551;BME280;50945;44.472;-123.352;2023-02-24T09:35:55;99861.22;;;-5.95;75.21
64551;BME280;50945;44.472;-123.352;2023-02-24T09:38:39;99853.16;;;-5.93;75.41
64551;BME280;50945;44.472;-123.352;2023-02-24T09:52:54;99889.53;;;-5.94;72.79
64551;BME280;50945;44.472;-123.352;2023-02-24T09:55:41;99892.13;;;-5.92;73.92
64551;BME280;50945;44.472;-123.352;2023-02-24T10:01:44;99898.19;;;-5.90;74.37
64551;BME280;50945;44.472;-123.352;2023-02-24T10:06:53;99899.09;;;-5.89;73.36
64551;BME280;50945;44.472;-123.352;2023-02-24T10:17:26;99884.13;;;-5.92;72.79
64551;BME280;50945;44.472;-123.352;2023-02-24T10:20:13;99893.94;;;-5.93;73.53
64551;BME280;50945;44.472;-123.352;2023-02-24T10:23:47;99888.53;;;-5.91;74.41
64551;BME280;50945;44.472;-123.352;2023-02-24T10:26:09;99886.63;;;-5.89;74.28
64551;BME280;50945;44.472;-123.352;2023-02-24T10:28:52;99886.69;;;-5.90;73.83
64551;BME280;50945;44.472;-123.352;2023-02-24T10:32:01;99894.59;;;-5.89;71.72
64551;BME280;50945;44.472;-123.352;2023-02-24T10:34:31;99899.94;;;-5.89;73.47
64551;BME280;50945;44.472;-123.352;2023-02-24T10:37:01;99907.06;;;-5.89;73.99
64551;BME280;50945;44.472;-123.352;2023-02-24T10:39:31;99901.84;;;-5.91;73.51
64551;BME280;50945;44.472;-123.352;2023-02-24T10:42:00;99896.59;;;-5.93;73.51
64551;BME280;50945;44.472;-123.352;2023-02-24T10:44:45;99894.94;;;-5.95;72.59
64551;BME280;50945;44.472;-123.352;2023-02-24T10:47:37;99898.50;;;-5.95;72.13
64551;BME280;50945;44.472;-123.352;2023-02-24T10:50:39;99907.34;;;-5.94;74.01
64551;BME280;50945;44.472;-123.352;2023-02-24T10:53:14;99908.09;;;-5.92;73.55
64551;BME280;50945;44.472;-123.352;2023-02-24T10:55:58;99908.84;;;-5.90;73.03
64551;BME280;50945;44.472;-123.352;2023-02-24T10:59:19;99910.66;;;-5.90;71.88
64551;BME280;50945;44.472;-123.352;2023-02-24T11:02:21;99918.56;;;-5.89;72.86
64551;BME280;50945;44.472;-123.352;2023-02-24T11:05:12;99914.09;;;-5.88;73.81
64551;BME280;50945;44.472;-123.352;2023-02-24T11:08:14;99922.16;;;-5.90;72.49
64551;BME280;50945;44.472;-123.352;2023-02-24T11:11:06;99920.47;;;-5.91;71.99
64551;BME280;50945;44.472;-123.352;2023-02-24T11:13:33;99916.97;;;-5.92;72.75
64551;BME280;50945;44.472;-123.352;2023-02-24T11:16:19;99911.72;;;-5.93;73.62
64551;BME280;50945;44.472;-123.352;2023-02-24T11:19:05;99917.81;;;-5.91;73.61
64551;BME280;50945;44.472;-123.352;2023-02-24T11:21:32;99910.84;;;-5.94;71.98
64551;BME280;50945;44.472;-123.352;2023-02-24T11:23:59;99924.06;;;-5.92;72.97
64551;BME280;50945;44.472;-123.352;2023-02-24T11:26:36;99922.16;;;-5.90;72.63
64551;BME280;50945;44.472;-123.352;2023-02-24T11:32:49;99928.28;;;-5.88;72.51
64551;BME280;50945;44.472;-123.352;2023-02-24T11:37:37;99926.56;;;-5.89;73.44
64551;BME280;50945;44.472;-123.352;2023-02-24T11:40:20;99926.56;;;-5.89;72.73
64551;BME280;50945;44.472;-123.352;2023-02-24T11:45:44;99937.03;;;-5.86;73.39
64551;BME280;50945;44.472;-123.352;2023-02-24T11:48:28;99942.34;;;-5.86;72.36
64551;BME280;50945;44.472;-123.352;2023-02-24T11:51:18;99943.13;;;-5.84;71.93
64551;BME280;50945;44.472;-123.352;2023-02-24T11:56:56;99939.47;;;-5.83;72.60
64551;BME280;50945;44.472;-123.352;2023-02-24T12:07:44;99935.13;;;-5.84;73.18
64551;BME280;50945;44.472;-123.352;2023-02-24T12:10:31;99944.94;;;-5.84;72.80
64551;BME280;50945;44.472;-123.352;2023-02-24T12:21:17;99953.09;;;-5.87;72.36
64551;BME280;50945;44.472;-123.352;2023-02-24T12:23:46;99948.69;;;-5.88;73.13
64551;BME280;50945;44.472;-123.352;2023-02-24T12:42:40;99961.47;;;-5.79;71.79
64551;BME280;50945;44.472;-123.352;2023-02-24T12:51:45;99969.56;;;-5.81;73.04
64551;BME280;50945;44.472;-123.352;2023-02-24T12:57:18;99973.75;;;-5.77;70.80
64551;BME280;50945;44.472;-123.352;2023-02-24T12:59:49;99970.25;;;-5.77;73.11
64551;BME280;50945;44.472;-123.352;2023-02-24T13:05:30;99983.34;;;-5.74;72.56
64551;BME280;50945;44.472;-123.352;2023-02-24T13:13:39;100002.00;;;-5.74;72.00
64551;BME280;50945;44.472;-123.352;2023-02-24T13:16:11;99997.72;;;-5.77;73.12
64551;BME280;50945;44.472;-123.352;2023-02-24T13:18:38;99998.56;;;-5.76;72.57
64551;BME280;50945;44.472;-123.352;2023-02-24T13:23:55;100013.63;;;-5.75;71.60
64551;BME280;50945;44.472;-123.352;2023-02-24T13:26:23;100014.56;;;-5.76;71.25
64551;BME280;50945;44.472;-123.352;2023-02-24T13:29:09;100017.13;;;-5.75;72.20
64551;BME280;50945;44.472;-123.352;2023-02-24T13:31:42;100024.25;;;-5.75;73.25
64551;BME280;50945;44.472;-123.352;2023-02-24T13:36:59;100024.25;;;-5.75;72.69
64551;BME280;50945;44.472;-123.352;2023-02-24T13:39:35;100019.72;;;-5.73;71.27
64551;BME280;50945;44.472;-123.352;2023-02-24T13:42:27;100022.38;;;-5.73;73.06
64551;BME280;50945;44.472;-123.352;2023-02-24T13:50:20;100030.19;;;-5.70;70.61
64551;BME280;50945;44.472;-123.352;2023-02-24T13:55:58;100033.78;;;-5.71;71.45
64551;BME280;50945;44.472;-123.352;2023-02-24T14:03:31;100048.16;;;-5.74;72.72
64551;BME280;50945;44.472;-123.352;2023-02-24T14:05:59;100037.66;;;-5.77;72.69
64551;BME280;50945;44.472;-123.352;2023-02-24T14:08:39;100044.00;;;-5.79;74.52
64551;BME280;50945;44.472;-123.352;2023-02-24T14:11:10;100064.63;;;-5.83;73.74
64551;BME280;50945;44.472;-123.352;2023-02-24T14:13:37;100062.09;;;-5.84;73.48
64551;BME280;50945;44.472;-123.352;2023-02-24T14:16:07;100065.69;;;-5.85;73.04
64551;BME280;50945;44.472;-123.352;2023-02-24T14:18:34;100073.66;;;-5.85;74.13
64551;BME280;50945;44.472;-123.352;2023-02-24T14:21:01;100069.19;;;-5.85;73.67
64551;BME280;50945;44.472;-123.352;2023-02-24T14:23:30;100068.41;;;-5.87;73.06
64551;BME280;50945;44.472;-123.352;2023-02-24T14:26:10;100068.41;;;-5.87;73.07
64551;BME280;50945;44.472;-123.352;2023-02-24T14:28:39;100077.38;;;-5.88;70.32
64551;BME280;50945;44.472;-123.352;2023-02-24T14:31:12;100089.72;;;-5.87;72.86
64551;BME280;50945;44.472;-123.352;2023-02-24T14:33:40;100081.72;;;-5.87;73.57
64551;BME280;50945;44.472;-123.352;2023-02-24T14:36:16;100088.19;;;-5.91;72.42
64551;BME280;50945;44.472;-123.352;2023-02-24T14:38:44;100082.84;;;-5.91;73.00
64551;BME280;50945;44.472;-123.352;2023-02-24T14:41:20;100094.53;;;-5.94;72.97
64551;BME280;50945;44.472;-123.352;2023-02-24T14:43:47;100104.31;;;-5.94;73.33
64551;BME280;50945;44.472;-123.352;2023-02-24T14:46:14;100100.16;;;-5.98;72.83
64551;BME280;50945;44.472;-123.352;2023-02-24T14:48:42;100103.91;;;-6.02;74.76
64551;BME280;50945;44.472;-123.352;2023-02-24T14:51:27;100108.47;;;-6.04;73.58
64551;BME280;50945;44.472;-123.352;2023-02-24T14:54:02;100106.84;;;-6.07;72.23
64551;BME280;50945;44.472;-123.352;2023-02-24T14:56:33;100111.47;;;-6.10;73.65
64551;BME280;50945;44.472;-123.352;2023-02-24T15:01:44;100113.53;;;-6.16;73.11
64551;BME280;50945;44.472;-123.352;2023-02-24T15:06:46;100126.84;;;-6.16;72.33
64551;BME280;50945;44.472;-123.352;2023-02-24T15:09:19;100126.84;;;-6.16;73.91
64551;BME280;50945;44.472;-123.352;2023-02-24T15:11:48;100127.84;;;-6.18;74.33
64551;BME280;50945;44.472;-123.352;2023-02-24T15:14:35;100131.63;;;-6.22;74.16
64551;BME280;50945;44.472;-123.352;2023-02-24T15:17:08;100143.25;;;-6.23;74.15
64551;BME280;50945;44.472;-123.352;2023-02-24T15:19:38;100142.19;;;-6.21;73.89
64551;BME280;50945;44.472;-123.352;2023-02-24T15:28:02;100153.53;;;-6.17;73.67
64551;BME280;50945;44.472;-123.352;2023-02-24T15:30:39;100158.69;;;-6.14;73.34
64551;BME280;50945;44.472;-123.352;2023-02-24T15:33:20;100155.75;;;-6.09;73.54
64551;BME280;50945;44.472;-123.352;2023-02-24T15:35:51;100156.56;;;-6.07;73.88
64551;BME280;50945;44.472;-123.352;2023-02-24T15:38:44;100147.63;;;-6.06;73.35
64551;BME280;50945;44.472;-123.352;2023-02-24T15:41:12;100153.56;;;-6.01;74.18
64551;BME280;50945;44.472;-123.352;2023-02-24T15:43:50;100152.16;;;-5.93;74.24
64551;BME280;50945;44.472;-123.352;2023-02-24T15:48:46;100160.31;;;-5.80;73.82
64551;BME280;50945;44.472;-123.352;2023-02-24T15:51:20;100164.34;;;-5.73;73.77
64551;BME280;50945;44.472;-123.352;2023-02-24T15:53:49;100174.75;;;-5.68;73.42
64551;BME280;50945;44.472;-123.352;2023-02-24T15:56:15;100173.63;;;-5.64;72.67
64551;BME280;50945;44.472;-123.352;2023-02-24T15:58:42;100183.97;;;-5.58;72.94